Falls Mill, West Virginia
Current Conditions -  °F | °C
As of 4:51 PM on Thursday 27 Nov 2014 (Local Time) from KBKW Reporting Station
Light Snow Light Snow  
Wind Chill: 17°   Ceiling: 2800
Heat Index: 28°   Visibility: 4mi
Dew Point: 21°   Wind: 15mph
Humidity: 75%   Direction: 300°WNW
Pressure: 30.16"   Gusts: 25mph
Location:  38.2586°N, 80.9505°W
Report Text: KBKW 272151Z AUTO 30013G22KT 4SM -SN SCT019 OVC028 M02/M06 A3016 RMK AO2 SNB01 SLP244 P0000 T10221061
Loading
Personal Weather Stations






























Interactive Weather Map New forecast layout! Learn more

10-Day Weather Forecast

Advertisements
Track Severe Weather on mobile